Time;durP1;ratioP1;P1;durP2;ratioP2;P2;SDS_P1;SDS_P2;PMS_P1;PMS_P2;Temp;Humidity;BMP_temperature;BMP_pressure;BME280_temperature;BME280_humidity;BME280_pressure;Samples;Min_cycle;Max_cycle;Signal;HPM_P1;HPM_P2
2022/04/03 00:02:26;;;;;;;5.57;2.93;;;1.40;99.90;;;;;;5032457;28;20495;-57
2022/04/03 00:04:53;;;;;;;2.53;2.30;;;1.40;99.90;;;;;;5032639;28;20454;-54
2022/04/03 00:07:20;;;;;;;4.93;2.80;;;1.40;99.90;;;;;;5032377;28;20513;-56
2022/04/03 00:09:47;;;;;;;5.13;2.43;;;1.40;99.90;;;;;;5032460;28;20459;-57
2022/04/03 00:12:13;;;;;;;5.00;3.20;;;1.40;99.90;;;;;;5032679;28;20461;-56
2022/04/03 00:14:40;;;;;;;3.83;2.90;;;1.40;99.90;;;;;;5032347;28;20864;-57
2022/04/03 00:17:07;;;;;;;3.73;3.00;;;1.30;99.90;;;;;;5031954;28;20487;-56
2022/04/03 00:19:35;;;;;;;3.57;2.60;;;1.30;99.90;;;;;;5032368;28;20864;-57
2022/04/03 00:22:03;;;;;;;;;;;1.30;99.90;;;;;;5032717;28;20374;-55
2022/04/03 00:24:30;;;;;;;;;;;1.30;99.90;;;;;;5032849;28;19921;-57
2022/04/03 00:26:56;;;;;;;;;;;1.30;99.90;;;;;;5032151;28;19925;-57
2022/04/03 00:29:24;;;;;;;4.33;2.93;;;1.30;99.90;;;;;;5031803;28;20224;-57
2022/04/03 00:31:50;;;;;;;5.55;3.70;;;1.30;99.90;;;;;;5031096;28;20501;-56
2022/04/03 00:34:17;;;;;;;5.03;2.80;;;1.40;99.90;;;;;;5032464;28;20296;-57
2022/04/03 00:36:45;;;;;;;4.00;2.77;;;1.30;99.90;;;;;;5031736;28;20480;-56
2022/04/03 00:39:12;;;;;;;4.50;2.63;;;1.30;99.90;;;;;;5032285;28;20509;-57
2022/04/03 00:41:40;;;;;;;4.57;3.60;;;1.30;99.90;;;;;;5030679;28;20793;-57
2022/04/03 00:44:07;;;;;;;6.47;4.15;;;1.20;99.90;;;;;;5030644;28;20843;-57
2022/04/03 00:46:36;;;;;;;5.03;3.10;;;1.40;99.90;;;;;;5031694;28;20303;-57
2022/04/03 00:49:03;;;;;;;9.02;5.22;;;1.40;99.90;;;;;;5030914;28;20419;-56
2022/04/03 00:51:32;;;;;;;4.57;3.47;;;1.60;99.90;;;;;;5032146;28;20206;-52
2022/04/03 00:54:01;;;;;;;8.77;4.40;;;1.50;99.90;;;;;;5031808;28;20447;-54
2022/04/03 00:56:28;;;;;;;;;;;1.40;99.90;;;;;;5031794;28;20295;-57
2022/04/03 00:58:55;;;;;;;;;;;1.40;99.90;;;;;;5032230;28;19971;-57
2022/04/03 01:01:22;;;;;;;;;;;1.30;99.90;;;;;;5032694;28;19921;-53
2022/04/03 01:03:48;;;;;;;5.27;2.57;;;1.30;99.90;;;;;;5031605;28;20691;-51
2022/04/03 01:06:15;;;;;;;2.87;2.40;;;1.20;99.90;;;;;;5031397;28;20545;-59
2022/04/03 01:08:43;;;;;;;2.90;2.33;;;1.20;99.90;;;;;;5031975;28;20449;-54
2022/04/03 01:11:12;;;;;;;6.10;2.60;;;1.10;99.90;;;;;;5031636;28;20542;-53
2022/04/03 01:13:46;;;;;;;3.73;2.63;;;1.00;99.90;;;;;;5032165;28;20454;-51
2022/04/03 01:16:12;;;;;;;;;;;1.00;99.90;;;;;;5031990;28;20375;-51
2022/04/03 01:18:39;;;;;;;4.72;3.63;;;1.00;99.90;;;;;;5030642;28;20416;-57
2022/04/03 01:21:06;;;;;;;5.13;3.90;;;1.10;99.90;;;;;;5030370;28;20480;-57
2022/04/03 01:23:32;;;;;;;3.43;3.07;;;1.10;1.00;;;;;;5031417;28;20272;-56
2022/04/03 01:26:00;;;;;;;4.32;3.42;;;1.20;99.90;;;;;;5030081;28;20473;-57
2022/04/03 01:28:27;;;;;;;3.83;2.73;;;1.20;99.90;;;;;;5032298;28;20234;-59
2022/04/03 01:30:53;;;;;;;;;;;1.20;99.90;;;;;;5032286;28;20835;-58
2022/04/03 01:33:20;;;;;;;;;;;1.20;99.90;;;;;;5032544;28;20024;-58
2022/04/03 01:35:47;;;;;;;;;;;1.20;99.90;;;;;;5031977;28;19921;-58
2022/04/03 01:38:14;;;;;;;;;;;1.20;99.90;;;;;;5031623;28;19921;-57
2022/04/03 01:40:41;;;;;;;;;;;1.20;99.90;;;;;;5033661;28;20338;-55
2022/04/03 01:43:10;;;;;;;4.77;2.60;;;1.20;99.90;;;;;;5035253;28;20690;-58
2022/04/03 01:45:38;;;;;;;4.50;3.55;;;1.10;99.90;;;;;;5034319;28;20414;-55
2022/04/03 01:48:06;;;;;;;6.57;3.40;;;1.10;99.90;;;;;;5033748;28;20832;-55
2022/04/03 01:50:33;;;;;;;7.07;4.03;;;1.20;99.90;;;;;;5035211;28;20271;-55
2022/04/03 01:53:00;;;;;;;4.67;3.17;;;1.20;99.90;;;;;;5034930;28;20448;-53
2022/04/03 01:55:27;;;;;;;3.90;2.53;;;1.20;99.90;;;;;;5035206;28;20512;-56
2022/04/03 01:57:54;;;;;;;2.93;2.50;;;1.00;99.90;;;;;;5034562;28;20477;-53
2022/04/03 02:00:23;;;;;;;4.38;3.97;;;1.00;99.90;;;;;;5034074;28;20419;-55
2022/04/03 02:02:50;;;;;;;5.93;3.60;;;1.00;99.90;;;;;;5035081;28;20277;-54
2022/04/03 02:05:17;;;;;;;3.60;2.80;;;1.10;1.00;;;;;;5034516;28;20472;-55
2022/04/03 02:07:44;;;;;;;3.93;2.80;;;1.10;99.90;;;;;;5034409;28;21045;-56
2022/04/03 02:10:12;;;;;;;5.63;4.00;;;1.20;99.90;;;;;;5033622;28;20468;-57
2022/04/03 02:12:39;;;;;;;5.13;3.88;;;1.30;99.90;;;;;;5033694;28;20497;-52
2022/04/03 02:15:07;;;;;;;8.77;2.97;;;1.40;99.90;;;;;;5034704;28;20206;-55
2022/04/03 02:17:35;;;;;;;5.68;4.18;;;1.40;99.90;;;;;;5033066;28;20411;-56
2022/04/03 02:20:01;;;;;;;;;;;1.50;99.90;;;;;;5034699;28;20057;-52
2022/04/03 02:22:28;;;;;;;5.70;3.90;;;1.50;99.90;;;;;;5033547;28;20423;-57
2022/04/03 02:24:55;;;;;;;;;;;1.50;99.90;;;;;;5035187;28;20053;-56
2022/04/03 02:27:22;;;;;;;5.00;3.55;;;1.50;99.90;;;;;;5032826;28;20489;-56
2022/04/03 02:29:48;;;;;;;;;;;1.50;99.90;;;;;;5035001;28;20072;-57
2022/04/03 02:32:16;;;;;;;;;;;1.40;99.90;;;;;;5034614;28;19921;-56
2022/04/03 02:34:44;;;;;;;;;;;1.40;99.90;;;;;;5034788;28;20445;-52
2022/04/03 02:37:11;;;;;;;;;;;1.30;99.90;;;;;;5034198;28;19927;-57
2022/04/03 02:39:37;;;;;;;;;;;1.20;1.00;;;;;;5034895;28;19921;-56
2022/04/03 02:42:04;;;;;;;;;;;1.10;1.00;;;;;;5034637;28;20279;-55
2022/04/03 02:44:31;;;;;;;;;;;1.00;1.00;;;;;;5034684;28;19928;-55
2022/04/03 02:46:58;;;;;;;4.57;2.77;;;1.00;1.00;;;;;;5033665;28;20220;-58
2022/04/03 02:49:24;;;;;;;5.07;3.27;;;0.90;3.30;;;;;;5034197;28;20508;-58
2022/04/03 02:51:52;;;;;;;;;;;0.90;18.90;;;;;;5034293;28;20375;-53
2022/04/03 02:54:19;;;;;;;4.27;3.03;;;0.90;24.90;;;;;;5033968;28;20213;-55
2022/04/03 02:56:46;;;;;;;;;;;0.80;39.60;;;;;;5034035;28;20296;-53
2022/04/03 02:59:12;;;;;;;;;;;0.80;81.30;;;;;;5034047;28;19921;-55
2022/04/03 03:01:39;;;;;;;;;;;0.80;99.90;;;;;;5034323;28;20055;-58
2022/04/03 03:04:05;;;;;;;;;;;0.80;99.90;;;;;;5034247;28;20352;-57
2022/04/03 03:06:32;;;;;;;6.33;3.00;;;0.70;99.90;;;;;;5033527;28;20270;-58
2022/04/03 03:09:00;;;;;;;;;;;0.70;99.90;;;;;;5034252;28;20410;-55
2022/04/03 03:11:26;;;;;;;;;;;0.70;99.90;;;;;;5033960;28;19929;-58
2022/04/03 03:13:53;;;;;;;;;;;0.70;99.90;;;;;;5034144;28;19967;-57
2022/04/03 03:16:20;;;;;;;5.57;2.90;;;0.60;99.90;;;;;;5032985;28;20220;-57
2022/04/03 03:18:46;;;;;;;4.27;2.50;;;0.60;99.90;;;;;;5033733;28;20453;-57
2022/04/03 03:21:13;;;;;;;;;;;0.60;99.90;;;;;;5033683;28;20375;-57
2022/04/03 03:23:40;;;;;;;;;;;0.50;99.90;;;;;;5033952;28;20341;-55
2022/04/03 03:26:08;;;;;;;;;;;0.50;99.90;;;;;;5033291;28;20448;-58
2022/04/03 03:28:35;;;;;;;7.90;4.38;;;0.40;99.90;;;;;;5032111;28;20459;-57
2022/04/03 03:31:01;;;;;;;7.70;4.75;;;0.40;99.90;;;;;;5032297;28;20447;-58
2022/04/03 03:33:28;;;;;;;6.90;3.33;;;0.50;99.90;;;;;;5033175;28;20691;-58
2022/04/03 03:35:55;;;;;;;6.83;3.40;;;0.50;1.00;;;;;;5032925;28;20558;-58
2022/04/03 03:38:22;;;;;;;4.67;3.33;;;0.50;1.00;;;;;;5033133;28;20536;-57
2022/04/03 03:40:48;;;;;;;3.77;3.23;;;0.50;1.00;;;;;;5033218;28;20449;-57
2022/04/03 03:43:17;;;;;;;5.18;4.13;;;0.50;1.00;;;;;;5031508;28;20427;-55
2022/04/03 03:45:43;;;;;;;5.37;3.90;;;0.50;1.00;;;;;;5033226;28;20208;-53
2022/04/03 03:48:11;;;;;;;4.97;3.07;;;0.40;1.00;;;;;;5032691;28;20507;-58
2022/04/03 03:50:38;;;;;;;6.97;3.60;;;0.40;1.00;;;;;;5033022;28;20538;-55
2022/04/03 03:53:04;;;;;;;;;;;0.40;1.00;;;;;;5033391;28;20762;-55
2022/04/03 03:55:31;;;;;;;;;;;0.40;1.00;;;;;;5033194;28;19921;-58
2022/04/03 03:57:58;;;;;;;3.97;2.60;;;0.30;1.00;;;;;;5032365;28;20212;-58
2022/04/03 04:00:26;;;;;;;6.27;3.13;;;0.20;1.00;;;;;;5032778;28;20450;-57
2022/04/03 04:02:52;;;;;;;5.53;3.00;;;0.20;1.00;;;;;;5032090;28;20532;-58
2022/04/03 04:05:19;;;;;;;4.80;3.17;;;0.10;1.00;;;;;;5032582;28;20464;-58
2022/04/03 04:07:47;;;;;;;5.38;4.60;;;0.10;1.00;;;;;;5030976;28;20415;-58
2022/04/03 04:10:16;;;;;;;7.27;3.77;;;0.00;1.00;;;;;;5032299;28;20377;-56
2022/04/03 04:12:45;;;;;;;7.40;3.33;;;0.00;1.00;;;;;;5032611;28;20942;-58
2022/04/03 04:15:12;;;;;;;7.55;4.72;;;0.00;16.30;;;;;;5031419;28;20411;-57
2022/04/03 04:17:42;;;;;;;7.80;4.33;;;0.00;50.50;;;;;;5032125;28;20230;-53
2022/04/03 04:20:12;;;;;;;7.17;4.07;;;0.00;86.40;;;;;;5032534;28;20461;-53
2022/04/03 04:22:39;;;;;;;6.17;3.33;;;0.00;7.60;;;;;;5032086;28;20457;-58
2022/04/03 04:25:07;;;;;;;3.90;3.07;;;0.00;1.00;;;;;;5032536;28;20488;-57
2022/04/03 04:27:34;;;;;;;6.53;3.33;;;0.00;1.00;;;;;;5031921;28;20535;-55
2022/04/03 04:30:00;;;;;;;3.87;3.10;;;-0.10;1.00;;;;;;5032472;28;20511;-57
2022/04/03 04:32:27;;;;;;;4.60;3.33;;;-0.10;1.00;;;;;;5032125;28;20452;-55
2022/04/03 04:34:55;;;;;;;5.07;3.70;;;-0.20;1.00;;;;;;5032189;28;20476;-57
2022/04/03 04:37:22;;;;;;;;;;;-0.20;1.00;;;;;;5032053;28;20319;-58
2022/04/03 04:39:48;;;;;;;8.60;5.25;;;-0.20;5.00;;;;;;5030645;28;20415;-58
2022/04/03 04:42:15;;;;;;;6.10;3.43;;;-0.10;1.00;;;;;;5032264;28;20257;-58
2022/04/03 04:44:43;;;;;;;5.73;3.33;;;-0.10;1.00;;;;;;5031961;28;20485;-57
2022/04/03 04:47:10;;;;;;;5.73;3.33;;;-0.10;1.00;;;;;;5031714;28;20520;-57
2022/04/03 04:49:37;;;;;;;5.50;2.90;;;-0.20;1.00;;;;;;5032032;28;20535;-57
2022/04/03 04:52:05;;;;;;;6.70;3.60;;;-0.20;1.00;;;;;;5032082;28;20515;-58
2022/04/03 04:54:32;;;;;;;5.27;3.10;;;-0.20;1.00;;;;;;5032068;28;20445;-55
2022/04/03 04:56:59;;;;;;;5.80;3.43;;;-0.30;1.00;;;;;;5031491;28;20523;-52
2022/04/03 04:59:26;;;;;;;4.63;3.20;;;-0.40;1.00;;;;;;5032036;28;20449;-58
2022/04/03 05:01:56;;;;;;;6.30;3.43;;;-0.40;1.00;;;;;;5031772;28;20454;-54
2022/04/03 05:04:23;;;;;;;5.47;3.67;;;-0.40;1.00;;;;;;5031782;28;20631;-57
2022/04/03 05:06:50;;;;;;;6.07;3.57;;;-0.40;1.00;;;;;;5031503;28;20473;-57
2022/04/03 05:09:20;;;;;;;9.27;3.57;;;-0.40;1.00;;;;;;5032074;28;20526;-58
2022/04/03 05:11:48;;;;;;;5.97;3.60;;;-0.50;1.00;;;;;;5031706;28;20449;-57
2022/04/03 05:14:15;;;;;;;9.70;4.37;;;-0.50;1.00;;;;;;5032704;28;20885;-57
2022/04/03 05:16:41;;;;;;;8.13;3.70;;;-0.50;14.00;;;;;;5035813;28;20476;-53
2022/04/03 05:19:12;;;;;;;8.90;3.57;;;-0.60;45.90;;;;;;5035609;28;20480;-57
2022/04/03 05:21:39;;;;;;;7.63;4.40;;;-0.60;84.60;;;;;;5035956;28;20873;-55
2022/04/03 05:24:06;;;;;;;5.13;3.50;;;-0.60;95.90;;;;;;5035432;28;21064;-58
2022/04/03 05:26:34;;;;;;;7.93;4.13;;;-0.60;99.90;;;;;;5035365;28;20476;-58
2022/04/03 05:29:01;;;;;;;9.63;3.50;;;-0.60;99.90;;;;;;5035758;28;20476;-58
2022/04/03 05:31:28;;;;;;;8.57;3.67;;;-0.60;99.90;;;;;;5035358;28;20838;-53
2022/04/03 05:33:55;;;;;;;5.87;3.90;;;-0.60;99.90;;;;;;5035258;28;20448;-58
2022/04/03 05:36:22;;;;;;;9.87;4.50;;;-0.60;99.90;;;;;;5035264;28;20473;-58
2022/04/03 05:38:49;;;;;;;8.63;4.57;;;-0.60;99.90;;;;;;5035587;28;20449;-58
2022/04/03 05:41:15;;;;;;;6.90;4.57;;;-0.60;99.90;;;;;;5035161;28;20939;-55
2022/04/03 05:43:43;;;;;;;7.70;4.60;;;-0.60;99.90;;;;;;5035244;28;20484;-58
2022/04/03 05:46:10;;;;;;;8.47;4.80;;;-0.60;99.90;;;;;;5034627;28;20886;-58
2022/04/03 05:48:38;;;;;;;7.60;4.63;;;-0.50;99.90;;;;;;5035432;28;20894;-58
2022/04/03 05:51:04;;;;;;;7.33;4.40;;;-0.50;99.90;;;;;;5035178;28;20457;-58
2022/04/03 05:53:31;;;;;;;7.30;4.17;;;-0.50;99.90;;;;;;5035306;28;20452;-58
2022/04/03 05:55:58;;;;;;;6.30;3.90;;;-0.50;99.90;;;;;;5034596;28;20527;-54
2022/04/03 05:58:24;;;;;;;7.97;4.43;;;-0.50;99.90;;;;;;5034924;28;20511;-55
2022/04/03 06:00:52;;;;;;;6.63;4.13;;;-0.40;99.90;;;;;;5034990;28;20453;-55
2022/04/03 06:03:19;;;;;;;6.73;4.10;;;-0.40;99.90;;;;;;5035080;28;20449;-59
2022/04/03 06:05:47;;;;;;;10.17;4.37;;;-0.30;39.30;;;;;;5034959;28;20519;-52
2022/04/03 06:08:14;;;;;;;6.00;4.43;;;-0.30;1.00;;;;;;5034617;28;20463;-53
2022/04/03 06:10:41;;;;;;;6.03;4.07;;;-0.30;1.00;;;;;;5034885;28;20528;-54
2022/04/03 06:13:09;;;;;;;4.90;3.60;;;-0.30;1.00;;;;;;5034578;28;20452;-56
2022/04/03 06:15:37;;;;;;;9.47;4.67;;;-0.20;99.90;;;;;;5034866;28;20453;-56
2022/04/03 06:18:09;;;;;;;6.97;4.10;;;-0.10;99.90;;;;;;5034516;28;20453;-59
2022/04/03 06:20:36;;;;;;;5.87;4.00;;;-0.10;99.90;;;;;;5034755;28;20444;-56
2022/04/03 06:23:09;;;;;;;5.17;4.33;;;-0.10;99.90;;;;;;5034578;28;20533;-57
2022/04/03 06:25:36;;;;;;;7.10;4.47;;;0.00;99.90;;;;;;5033638;28;20484;-57
2022/04/03 06:28:03;;;;;;;6.40;4.33;;;0.10;99.90;;;;;;5034119;28;20531;-55
2022/04/03 06:30:31;;;;;;;7.63;4.23;;;0.30;99.90;;;;;;5034614;28;20537;-64
2022/04/03 06:32:57;;;;;;;6.57;4.20;;;0.40;99.90;;;;;;5034689;28;20448;-58
2022/04/03 06:35:25;;;;;;;7.90;4.07;;;0.50;72.20;;;;;;5034442;28;20453;-58
2022/04/03 06:37:52;;;;;;;7.60;3.77;;;0.60;4.60;;;;;;5034046;28;20474;-55
2022/04/03 06:40:19;;;;;;;8.27;4.83;;;0.70;1.00;;;;;;5034134;28;20457;-57
2022/04/03 06:42:46;;;;;;;7.22;5.18;;;0.80;1.00;;;;;;5033249;28;20800;-56
2022/04/03 06:45:14;;;;;;;6.57;4.63;;;0.90;1.00;;;;;;5034200;28;20234;-57
2022/04/03 06:47:41;;;;;;;8.55;5.35;;;1.00;1.00;;;;;;5032577;28;20423;-57
2022/04/03 06:50:10;;;;;;;9.10;5.00;;;1.10;1.00;;;;;;5034187;28;20244;-56
2022/04/03 06:52:38;;;;;;;7.55;4.90;;;1.20;1.00;;;;;;5032896;28;20411;-56
2022/04/03 06:55:06;;;;;;;8.83;4.50;;;1.40;1.00;;;;;;5034461;28;20202;-57
2022/04/03 06:57:33;;;;;;;7.70;5.03;;;1.60;99.90;;;;;;5032210;28;20419;-58
2022/04/03 07:00:00;;;;;;;4.37;3.60;;;1.70;99.90;;;;;;5034134;28;20256;-55
2022/04/03 07:02:27;;;;;;;6.55;5.28;;;1.80;99.90;;;;;;5032608;28;20951;-57
2022/04/03 07:04:53;;;;;;;6.50;4.38;;;1.90;99.90;;;;;;5032562;28;20431;-58
2022/04/03 07:07:23;;;;;;;5.78;4.50;;;2.00;99.90;;;;;;5032095;28;20476;-58
2022/04/03 07:09:52;;;;;;;5.45;4.40;;;2.30;99.90;;;;;;5032472;28;20431;-58
2022/04/03 07:12:19;;;;;;;4.97;4.20;;;2.50;99.90;;;;;;5032699;28;20423;-58
2022/04/03 07:14:46;;;;;;;6.17;4.30;;;2.60;99.90;;;;;;5033778;28;20207;-58
2022/04/03 07:17:13;;;;;;;5.73;3.37;;;2.50;99.90;;;;;;5033339;28;20484;-58
2022/04/03 07:19:39;;;;;;;;;;;2.50;99.90;;;;;;5033820;28;20714;-57
2022/04/03 07:22:06;;;;;;;7.10;3.83;;;2.60;99.90;;;;;;5033826;28;20227;-58
2022/04/03 07:24:33;;;;;;;8.95;4.30;;;2.60;99.90;;;;;;5032525;28;20426;-58
2022/04/03 07:27:01;;;;;;;4.55;3.35;;;2.70;99.90;;;;;;5031818;28;20419;-58
2022/04/03 07:29:27;;;;;;;5.13;3.30;;;2.80;99.90;;;;;;5032359;28;20480;-55
2022/04/03 07:31:54;;;;;;;3.97;2.83;;;3.10;99.90;;;;;;5032129;28;20516;-58
2022/04/03 07:34:22;;;;;;;7.05;2.58;;;3.30;99.90;;;;;;5032115;28;20769;-58
2022/04/03 07:36:49;;;;;;;5.43;2.33;;;3.40;99.90;;;;;;5033049;28;20238;-56
2022/04/03 07:39:16;;;;;;;2.83;2.20;;;3.50;99.90;;;;;;5032258;28;20489;-57
2022/04/03 07:41:43;;;;;;;3.97;2.70;;;3.50;99.90;;;;;;5031772;28;20418;-56
2022/04/03 07:44:12;;;;;;;5.78;3.50;;;3.50;99.90;;;;;;5032040;28;20956;-58
2022/04/03 07:46:39;;;;;;;4.25;2.80;;;3.60;99.90;;;;;;5031620;28;20809;-57
2022/04/03 07:49:06;;;;;;;4.18;2.85;;;3.50;99.90;;;;;;5031569;28;20422;-57
2022/04/03 07:51:33;;;;;;;;;;;3.70;99.90;;;;;;5033717;28;20056;-58
2022/04/03 07:54:00;;;;;;;4.70;2.47;;;3.80;99.90;;;;;;5032989;28;20243;-58
2022/04/03 07:56:26;;;;;;;5.32;2.83;;;3.80;99.90;;;;;;5031231;28;20506;-55
2022/04/03 07:58:53;;;;;;;5.37;2.70;;;4.00;99.90;;;;;;5032712;28;20264;-58
2022/04/03 08:01:21;;;;;;;3.57;2.07;;;3.80;99.90;;;;;;5032830;28;20503;-57
2022/04/03 08:03:48;;;;;;;2.73;2.43;;;3.80;99.90;;;;;;5028866;28;20546;-57
2022/04/03 08:06:14;;;;;;;;;;;3.80;99.90;;;;;;5028278;28;20300;-54
2022/04/03 08:08:41;;;;;;;7.20;2.67;;;3.80;99.90;;;;;;5031545;28;20864;-60
2022/04/03 08:11:09;;;;;;;5.83;2.80;;;4.00;99.90;;;;;;5031039;28;20510;-60
2022/04/03 08:13:36;;;;;;;4.70;1.92;;;4.30;99.90;;;;;;5031247;28;20422;-62
2022/04/03 08:16:02;;;;;;;4.45;1.92;;;4.40;99.90;;;;;;5030071;28;20473;-60
2022/04/03 08:18:30;;;;;;;6.20;2.47;;;4.40;99.90;;;;;;5031063;28;21075;-61
2022/04/03 08:20:57;;;;;;;4.03;2.20;;;4.60;98.70;;;;;;5031267;28;20441;-61
2022/04/03 08:23:24;;;;;;;;;;;4.80;94.30;;;;;;5032652;28;20046;-61
2022/04/03 08:25:50;;;;;;;4.38;2.45;;;4.90;91.60;;;;;;5030606;28;20434;-59
2022/04/03 08:28:17;;;;;;;3.75;2.65;;;4.80;71.80;;;;;;5030655;28;20426;-61
2022/04/03 08:30:44;;;;;;;4.37;3.07;;;4.70;62.00;;;;;;5030532;28;20526;-59
2022/04/03 08:33:11;;;;;;;4.68;3.05;;;4.80;55.50;;;;;;5030777;28;20421;-57
2022/04/03 08:35:40;;;;;;;3.95;2.90;;;5.00;74.90;;;;;;5030216;28;20418;-59
2022/04/03 08:38:07;;;;;;;3.50;2.65;;;5.30;42.00;;;;;;5030742;28;20419;-59
2022/04/03 08:40:35;;;;;;;4.20;2.78;;;5.60;27.30;;;;;;5030601;28;20806;-59
2022/04/03 08:43:03;;;;;;;4.68;2.95;;;5.60;20.20;;;;;;5030513;28;20419;-59
2022/04/03 08:45:30;;;;;;;4.93;2.58;;;5.80;34.10;;;;;;5030159;28;21251;-60
2022/04/03 08:47:58;;;;;;;4.22;2.63;;;5.90;17.20;;;;;;5030484;28;20782;-59
2022/04/03 08:50:27;;;;;;;4.80;2.70;;;6.10;21.30;;;;;;5030349;28;20419;-60
2022/04/03 08:52:57;;;;;;;2.92;2.30;;;6.10;14.40;;;;;;5030512;28;20430;-61
2022/04/03 08:55:24;;;;;;;5.22;2.40;;;6.20;14.90;;;;;;5027818;28;20415;-62
2022/04/03 08:57:52;;;;;;;3.88;2.42;;;6.10;11.50;;;;;;5028284;28;20426;-62
2022/04/03 09:00:20;;;;;;;3.92;2.40;;;6.00;12.00;;;;;;5029828;28;20415;-60
2022/04/03 09:02:47;;;;;;;2.90;2.58;;;6.00;10.20;;;;;;5027678;28;20889;-61
2022/04/03 09:05:15;;;;;;;4.13;2.60;;;5.90;9.50;;;;;;5016745;28;20436;-61
2022/04/03 09:07:42;;;;;;;3.42;2.58;;;5.90;6.70;;;;;;5010047;28;20471;-61
2022/04/03 09:10:13;;;;;;;3.95;2.60;;;5.70;5.20;;;;;;5010320;28;20417;-61
2022/04/03 09:12:46;;;;;;;5.93;2.90;;;5.40;4.70;;;;;;5010542;28;20495;-61
2022/04/03 09:15:14;;;;;;;3.30;2.43;;;5.30;3.20;;;;;;5010165;28;20408;-61
2022/04/03 09:17:44;;;;;;;6.30;2.20;;;5.20;5.00;;;;;;5009634;28;20416;-62
2022/04/03 09:20:12;;;;;;;2.47;1.77;;;5.20;1.00;;;;;;5010792;28;20220;-61
2022/04/03 09:22:41;;;;;;;3.30;2.00;;;5.30;1.00;;;;;;5011497;28;20249;-61
2022/04/03 09:25:10;;;;;;;2.83;2.10;;;5.20;1.00;;;;;;5010350;28;20482;-62
2022/04/03 09:27:47;;;;;;;3.63;2.30;;;5.40;2.40;;;;;;5009836;28;20479;-62
2022/04/03 09:30:14;;;;;;;3.40;1.97;;;5.30;3.40;;;;;;5011741;28;20236;-62
2022/04/03 09:32:47;;;;;;;3.93;1.87;;;5.20;1.00;;;;;;5011163;28;20211;-57
2022/04/03 09:35:14;;;;;;;4.07;2.10;;;5.00;3.50;;;;;;5024589;28;20505;-59
2022/04/03 09:38:08;;;;;;;3.33;2.10;;;5.00;3.30;;;;;;5029739;28;20418;-59
2022/04/03 09:40:38;;;;;;;4.40;2.10;;;5.10;1.00;;;;;;5031485;28;20194;-58
2022/04/03 09:43:22;;;;;;;5.50;2.30;;;5.10;2.80;;;;;;5029884;28;20427;-54
2022/04/03 09:45:51;;;;;;;3.93;2.20;;;5.00;1.00;;;;;;5029188;28;20426;-58
2022/04/03 09:48:26;;;;;;;4.30;2.22;;;4.90;4.30;;;;;;5029801;28;20419;-58
2022/04/03 09:51:02;;;;;;;4.40;2.22;;;5.00;8.10;;;;;;5030235;28;20518;-58
2022/04/03 09:53:30;;;;;;;3.92;2.20;;;5.20;5.20;;;;;;5030253;28;20797;-58
2022/04/03 09:55:58;;;;;;;4.40;2.40;;;5.40;9.00;;;;;;5028837;28;20415;-58
2022/04/03 09:58:25;;;;;;;5.40;2.80;;;5.60;5.00;;;;;;5029555;28;20427;-58
2022/04/03 10:00:52;;;;;;;3.53;2.28;;;5.30;4.40;;;;;;5030115;28;20848;-60
2022/04/03 10:03:19;;;;;;;4.20;2.40;;;5.30;6.20;;;;;;5033769;28;20816;-58
2022/04/03 10:05:46;;;;;;;3.63;2.20;;;5.30;4.60;;;;;;5033736;28;20430;-59
2022/04/03 10:08:13;;;;;;;4.55;2.50;;;5.20;2.70;;;;;;5033622;28;20920;-63
2022/04/03 10:10:40;;;;;;;3.65;2.15;;;5.10;7.00;;;;;;5033063;28;20423;-60
2022/04/03 10:13:10;;;;;;;4.30;2.28;;;5.20;6.50;;;;;;5033114;28;20902;-58
2022/04/03 10:15:36;;;;;;;3.83;2.63;;;5.20;5.70;;;;;;5032995;28;20794;-59
2022/04/03 10:18:05;;;;;;;5.50;2.40;;;5.20;4.70;;;;;;5033122;28;20418;-57
2022/04/03 10:20:31;;;;;;;4.43;2.30;;;5.30;2.90;;;;;;5033682;28;20514;-61
2022/04/03 10:23:04;;;;;;;3.33;2.10;;;5.40;3.00;;;;;;5032851;28;20477;-59
2022/04/03 10:25:36;;;;;;;4.00;2.20;;;5.40;3.80;;;;;;5033024;28;20792;-58
2022/04/03 10:28:05;;;;;;;4.47;1.90;;;5.30;1.70;;;;;;5034045;28;20207;-59
2022/04/03 10:30:38;;;;;;;3.37;2.10;;;5.10;2.20;;;;;;5032694;28;20952;-58
2022/04/03 10:33:06;;;;;;;4.15;2.00;;;5.10;4.00;;;;;;5032827;28;20426;-61
2022/04/03 10:35:33;;;;;;;3.20;2.00;;;5.40;4.00;;;;;;5032360;28;20407;-58
2022/04/03 10:38:03;;;;;;;3.05;1.85;;;5.40;7.00;;;;;;5032322;28;20862;-60
2022/04/03 10:40:33;;;;;;;3.33;2.20;;;5.40;4.00;;;;;;5032719;28;20441;-59
2022/04/03 10:43:02;;;;;;;4.03;1.92;;;5.30;3.70;;;;;;5032900;28;20423;-59
2022/04/03 10:45:32;;;;;;;3.33;1.90;;;5.50;4.40;;;;;;5032385;28;20466;-61
2022/04/03 10:48:30;;;;;;;3.50;1.80;;;5.60;18.60;;;;;;5032360;28;20494;-60
2022/04/03 10:51:08;;;;;;;4.00;2.20;;;5.60;5.00;;;;;;5033158;28;20425;-60
2022/04/03 10:53:38;;;;;;;3.53;2.13;;;5.60;7.00;;;;;;5032554;28;20445;-58
2022/04/03 10:56:10;;;;;;;4.43;2.40;;;5.90;7.10;;;;;;5032091;28;20793;-59
2022/04/03 10:58:42;;;;;;;3.72;2.22;;;6.00;19.90;;;;;;5032019;28;20423;-59
2022/04/03 11:01:12;;;;;;;3.20;2.13;;;6.10;25.00;;;;;;5032853;28;20418;-59
2022/04/03 11:03:40;;;;;;;2.55;1.73;;;6.40;20.40;;;;;;5032419;28;20418;-57
2022/04/03 11:06:35;;;;;;;2.20;1.55;;;6.60;20.70;;;;;;5031768;28;20438;-59
2022/04/03 11:09:15;;;;;;;2.92;1.45;;;6.80;15.20;;;;;;4997097;28;20910;-58
2022/04/03 11:11:49;;;;;;;2.47;1.40;;;6.80;15.00;;;;;;5032060;28;20419;-59
2022/04/03 11:14:50;;;;;;;2.53;1.55;;;6.80;26.40;;;;;;5032232;28;20422;-60
2022/04/03 11:17:17;;;;;;;3.72;1.70;;;7.00;25.20;;;;;;5031480;28;20414;-58
2022/04/03 11:19:47;;;;;;;2.88;1.45;;;6.90;19.50;;;;;;5032222;28;20453;-58
2022/04/03 11:22:17;;;;;;;2.63;1.40;;;6.70;14.00;;;;;;5031880;28;20463;-59
2022/04/03 11:24:44;;;;;;;2.92;1.38;;;6.90;18.60;;;;;;5032007;28;20502;-59
2022/04/03 11:27:12;;;;;;;2.47;1.60;;;7.00;18.20;;;;;;5031743;28;20426;-58
2022/04/03 11:29:39;;;;;;;2.42;1.38;;;7.10;17.10;;;;;;5031969;28;20419;-62
2022/04/03 11:32:09;;;;;;;3.15;1.88;;;7.10;20.00;;;;;;5032011;28;20506;-60
2022/04/03 11:34:36;;;;;;;3.33;1.77;;;7.20;20.00;;;;;;5031196;28;20410;-59
2022/04/03 11:37:08;;;;;;;3.03;1.95;;;7.50;19.10;;;;;;5030122;28;20419;-59
2022/04/03 11:39:36;;;;;;;3.10;1.63;;;7.60;18.90;;;;;;5030942;28;20422;-58
2022/04/03 11:42:08;;;;;;;3.45;2.00;;;7.70;21.40;;;;;;5031699;28;20422;-58
2022/04/03 11:44:36;;;;;;;3.72;2.00;;;7.80;20.70;;;;;;5031338;28;20418;-59
2022/04/03 11:47:04;;;;;;;3.58;1.63;;;7.60;21.40;;;;;;5031309;28;20473;-59
2022/04/03 11:49:33;;;;;;;2.90;1.80;;;7.40;20.40;;;;;;5031331;28;20526;-61
2022/04/03 11:52:07;;;;;;;3.88;1.88;;;7.20;19.30;;;;;;5031401;28;20923;-60
2022/04/03 11:54:35;;;;;;;3.63;1.90;;;7.00;18.20;;;;;;5031263;28;20423;-59
2022/04/03 11:57:04;;;;;;;3.33;2.05;;;7.10;16.10;;;;;;5030665;28;20414;-59
2022/04/03 11:59:33;;;;;;;3.00;1.98;;;7.50;20.00;;;;;;5031822;28;21058;-56
2022/04/03 12:02:09;;;;;;;3.20;1.90;;;7.70;21.40;;;;;;5030153;28;20498;-58
2022/04/03 12:04:39;;;;;;;3.20;2.03;;;7.90;26.90;;;;;;5030568;28;20414;-56
2022/04/03 12:07:12;;;;;;;3.20;2.10;;;7.90;22.10;;;;;;5030092;28;20856;-56
2022/04/03 12:09:40;;;;;;;2.60;2.13;;;7.70;30.50;;;;;;5031147;28;20504;-58
2022/04/03 12:12:08;;;;;;;4.13;1.92;;;7.00;18.60;;;;;;5033137;28;20755;-60
2022/04/03 12:14:37;;;;;;;3.55;2.13;;;7.00;16.80;;;;;;5030265;28;20418;-62
2022/04/03 12:17:06;;;;;;;3.33;2.30;;;7.10;15.70;;;;;;5030397;28;20821;-56
2022/04/03 12:19:36;;;;;;;3.25;2.33;;;7.40;23.60;;;;;;5030078;28;20450;-57
2022/04/03 12:22:04;;;;;;;3.33;2.10;;;7.70;17.40;;;;;;5029751;28;20518;-59
2022/04/03 12:24:34;;;;;;;4.65;2.50;;;7.90;19.80;;;;;;5029061;28;21185;-60
2022/04/03 12:27:02;;;;;;;4.57;2.50;;;8.00;19.10;;;;;;5023818;28;20921;-63
2022/04/03 12:29:30;;;;;;;3.45;2.38;;;8.20;21.50;;;;;;5030246;28;20414;-64
2022/04/03 12:31:59;;;;;;;3.63;2.53;;;8.40;26.00;;;;;;5030699;28;20426;-62
2022/04/03 12:34:26;;;;;;;3.47;2.55;;;8.60;25.70;;;;;;5030586;28;20419;-63
2022/04/03 12:36:55;;;;;;;4.35;2.47;;;8.50;23.90;;;;;;5029885;28;20407;-61
2022/04/03 12:39:46;;;;;;;3.35;2.60;;;8.60;22.50;;;;;;5030747;28;20430;-57
2022/04/03 12:42:18;;;;;;;3.05;2.40;;;8.60;19.20;;;;;;5024626;28;20412;-59
2022/04/03 12:44:46;;;;;;;4.07;2.40;;;8.40;19.40;;;;;;5010936;28;20515;-59
2022/04/03 12:47:15;;;;;;;4.95;2.60;;;8.30;18.00;;;;;;5010547;28;20899;-59
2022/04/03 12:49:46;;;;;;;4.68;2.70;;;8.50;17.50;;;;;;5010892;28;20419;-57
2022/04/03 12:52:19;;;;;;;3.80;2.80;;;8.40;21.30;;;;;;5027231;28;20506;-58
2022/04/03 12:54:46;;;;;;;2.67;2.45;;;8.30;18.00;;;;;;5030775;28;20414;-59
2022/04/03 13:00:16;;;;;;;3.30;2.47;;;7.80;13.20;;;;;;5028704;28;20472;-60
2022/04/03 13:02:45;;;;;;;3.17;2.58;;;7.60;10.40;;;;;;5030823;28;20454;-63
2022/04/03 13:05:16;;;;;;;5.18;2.67;;;7.30;13.60;;;;;;5030144;28;20415;-59
2022/04/03 13:07:43;;;;;;;4.32;3.00;;;7.10;12.20;;;;;;5029374;28;20435;-60
2022/04/03 13:10:18;;;;;;;3.75;3.00;;;6.90;11.40;;;;;;5030623;28;20418;-61
2022/04/03 13:12:48;;;;;;;4.00;2.50;;;6.70;12.60;;;;;;5030497;28;20430;-58
2022/04/03 13:15:15;;;;;;;4.55;2.40;;;6.50;15.10;;;;;;5023012;28;20514;-58
2022/04/03 13:17:42;;;;;;;4.45;2.10;;;6.50;18.70;;;;;;5030155;28;20442;-58
2022/04/03 13:20:10;;;;;;;4.03;2.00;;;6.50;18.00;;;;;;5029829;28;20422;-60